Time;durP1;ratioP1;P1;durP2;ratioP2;P2;SDS_P1;SDS_P2;PMS_P1;PMS_P2;Temp;Humidity;BMP_temperature;BMP_pressure;BME280_temperature;BME280_humidity;BME280_pressure;Samples;Min_cycle;Max_cycle;Signal;HPM_P1;HPM_P2
2023/03/28 00:01:52;;;;;;;14.18;2.55;;;;;;;;;;5070327;28;21175;-79
2023/03/28 00:04:21;;;;;;;10.95;2.58;;;;;;;;;;5061342;28;20418;-79
2023/03/28 00:06:52;;;;;;;15.65;2.63;;;;;;;;;;5073059;28;20434;-79
2023/03/28 00:09:18;;;;;;;14.02;2.53;;;;;;;;;;5071586;28;20419;-79
2023/03/28 00:11:44;;;;;;;11.98;2.78;;;;;;;;;;5058534;28;20415;-79
2023/03/28 00:14:13;;;;;;;12.05;2.60;;;;;;;;;;5076909;28;20481;-79
2023/03/28 00:16:39;;;;;;;15.73;2.95;;;;;;;;;;5089271;28;20452;-79
2023/03/28 00:19:07;;;;;;;16.20;2.70;;;;;;;;;;5053621;28;20419;-80
2023/03/28 00:21:35;;;;;;;14.07;2.40;;;;;;;;;;5091483;28;20423;-80
2023/03/28 00:24:03;;;;;;;12.52;2.90;;;;;;;;;;5082975;28;20452;-80
2023/03/28 00:26:31;;;;;;;10.98;2.40;;;;;;;;;;5073464;28;20750;-80
2023/03/28 00:28:57;;;;;;;12.45;2.70;;;;;;;;;;5055369;28;20420;-80
2023/03/28 00:31:25;;;;;;;14.10;3.00;;;;;;;;;;5077598;28;21076;-80
2023/03/28 00:33:52;;;;;;;11.77;3.00;;;;;;;;;;5065681;28;20513;-80
2023/03/28 00:36:21;;;;;;;12.20;3.07;;;;;;;;;;5072565;28;20405;-80
2023/03/28 00:38:52;;;;;;;15.90;2.93;;;;;;;;;;5071714;28;20417;-80
2023/03/28 00:41:20;;;;;;;14.73;2.90;;;;;;;;;;5063857;28;20427;-80
2023/03/28 00:43:47;;;;;;;14.02;2.92;;;;;;;;;;5089955;28;20504;-80
2023/03/28 00:46:25;;;;;;;12.00;2.88;;;;;;;;;;5092000;28;20496;-80
2023/03/28 00:48:53;;;;;;;16.00;2.78;;;;;;;;;;5064977;28;20938;-80
2023/03/28 00:51:22;;;;;;;18.17;3.35;;;;;;;;;;5072783;28;20427;-80
2023/03/28 00:53:49;;;;;;;14.95;2.83;;;;;;;;;;5062776;28;20454;-80
2023/03/28 00:56:18;;;;;;;15.98;3.20;;;;;;;;;;5104142;28;20419;-80
2023/03/28 00:58:46;;;;;;;16.63;2.92;;;;;;;;;;5073431;28;20948;-80
2023/03/28 01:01:14;;;;;;;17.17;3.10;;;;;;;;;;5093130;28;20481;-79
2023/03/28 01:03:45;;;;;;;14.25;3.15;;;;;;;;;;5077327;28;20394;-79
2023/03/28 01:06:13;;;;;;;18.13;3.00;;;;;;;;;;5069767;28;20427;-80
2023/03/28 01:08:40;;;;;;;18.42;3.10;;;;;;;;;;5077572;28;20455;-81
2023/03/28 01:11:07;;;;;;;19.42;3.10;;;;;;;;;;5107852;28;20839;-81
2023/03/28 01:13:41;;;;;;;12.05;3.05;;;;;;;;;;5093960;28;20463;-81
2023/03/28 01:16:07;;;;;;;14.18;2.63;;;;;;;;;;5077140;28;20521;-80
2023/03/28 01:18:35;;;;;;;10.90;2.35;;;;;;;;;;5089965;28;20426;-80
2023/03/28 01:21:07;;;;;;;15.98;3.05;;;;;;;;;;5069048;28;20422;-80
2023/03/28 01:23:47;;;;;;;14.93;3.17;;;;;;;;;;5059471;28;20417;-80
2023/03/28 01:26:16;;;;;;;10.70;2.65;;;;;;;;;;5062677;28;20930;-80
2023/03/28 01:29:03;;;;;;;16.50;3.07;;;;;;;;;;5089435;28;20549;-81
2023/03/28 01:31:29;;;;;;;11.63;2.80;;;;;;;;;;5075404;28;20413;-81
2023/03/28 01:34:01;;;;;;;13.00;2.97;;;;;;;;;;5056886;28;20521;-81
2023/03/28 01:36:30;;;;;;;13.52;2.60;;;;;;;;;;5077921;28;20429;-80
2023/03/28 01:38:59;;;;;;;14.77;2.80;;;;;;;;;;5056461;28;20949;-80
2023/03/28 01:41:25;;;;;;;13.87;2.70;;;;;;;;;;5089053;28;21100;-80
2023/03/28 01:43:51;;;;;;;14.35;2.95;;;;;;;;;;5057889;28;20983;-80
2023/03/28 01:46:32;;;;;;;18.35;2.92;;;;;;;;;;5088775;28;20413;-80
2023/03/28 01:49:04;;;;;;;12.88;2.90;;;;;;;;;;5080505;28;20470;-80
2023/03/28 01:51:35;;;;;;;14.52;2.90;;;;;;;;;;5072444;28;20901;-80
2023/03/28 01:54:25;;;;;;;16.83;2.97;;;;;;;;;;5074280;28;20450;-80
2023/03/28 01:57:06;;;;;;;14.27;2.97;;;;;;;;;;5033882;28;20461;-79
2023/03/28 01:59:34;;;;;;;15.10;2.75;;;;;;;;;;5057672;28;20421;-79
2023/03/28 02:02:07;;;;;;;20.73;3.10;;;;;;;;;;5065072;28;20465;-79
2023/03/28 02:04:34;;;;;;;14.33;2.70;;;;;;;;;;5097082;28;20433;-80
2023/03/28 02:07:00;;;;;;;14.25;3.00;;;;;;;;;;5089529;28;20418;-79
2023/03/28 02:09:28;;;;;;;12.32;2.50;;;;;;;;;;5090259;28;20782;-79
2023/03/28 02:11:59;;;;;;;14.85;2.60;;;;;;;;;;5045474;28;20419;-80
2023/03/28 02:14:27;;;;;;;16.17;3.00;;;;;;;;;;5089313;28;20428;-80
2023/03/28 02:16:56;;;;;;;14.50;2.77;;;;;;;;;;5057934;28;20418;-79
2023/03/28 02:19:23;;;;;;;14.50;2.97;;;;;;;;;;5068847;28;20431;-80
2023/03/28 02:22:07;;;;;;;16.77;3.40;;;;;;;;;;5059329;28;20458;-79
2023/03/28 02:24:33;;;;;;;18.65;3.22;;;;;;;;;;5088614;28;20943;-79
2023/03/28 02:26:59;;;;;;;19.90;2.90;;;;;;;;;;5055049;28;20441;-79
2023/03/28 02:29:27;;;;;;;15.88;2.88;;;;;;;;;;5075096;28;20449;-79
2023/03/28 02:31:53;;;;;;;14.18;2.78;;;;;;;;;;5091705;28;20505;-79
2023/03/28 02:34:19;;;;;;;15.73;2.95;;;;;;;;;;5084472;28;20921;-79
2023/03/28 02:37:10;;;;;;;15.07;2.70;;;;;;;;;;5039190;28;21017;-78
2023/03/28 02:39:36;;;;;;;14.10;2.60;;;;;;;;;;5106659;28;20454;-79
2023/03/28 02:42:08;;;;;;;14.80;2.55;;;;;;;;;;5072865;28;20475;-79
2023/03/28 02:44:34;;;;;;;16.73;2.83;;;;;;;;;;5073775;28;20422;-78
2023/03/28 02:47:09;;;;;;;15.38;2.90;;;;;;;;;;5071591;28;20414;-78
2023/03/28 02:49:44;;;;;;;15.13;2.70;;;;;;;;;;5108696;28;20444;-78
2023/03/28 02:52:13;;;;;;;13.88;2.85;;;;;;;;;;5104432;28;20429;-78
2023/03/28 02:54:47;;;;;;;15.40;2.90;;;;;;;;;;5073521;28;20928;-76
2023/03/28 02:57:23;;;;;;;16.65;3.28;;;;;;;;;;5079848;28;20424;-76
2023/03/28 03:00:12;;;;;;;16.25;2.63;;;;;;;;;;5089660;28;20920;-77
2023/03/28 03:02:42;;;;;;;12.23;3.00;;;;;;;;;;5080634;28;20419;-77
2023/03/28 03:05:09;;;;;;;14.70;3.00;;;;;;;;;;5100248;28;20417;-77
2023/03/28 03:07:38;;;;;;;18.67;2.53;;;;;;;;;;5091818;28;20406;-77
2023/03/28 03:10:05;;;;;;;16.40;2.90;;;;;;;;;;5090739;28;20518;-76
2023/03/28 03:12:31;;;;;;;19.20;3.40;;;;;;;;;;5091267;28;20439;-76
2023/03/28 03:14:59;;;;;;;14.27;3.03;;;;;;;;;;5080091;28;20421;-76
2023/03/28 03:17:26;;;;;;;16.27;2.83;;;;;;;;;;5091026;28;20421;-77
2023/03/28 03:19:52;;;;;;;12.95;2.50;;;;;;;;;;5064658;28;20423;-76
2023/03/28 03:22:18;;;;;;;15.82;3.40;;;;;;;;;;5070966;28;20866;-76
2023/03/28 03:24:45;;;;;;;15.50;2.75;;;;;;;;;;5091741;28;20520;-76
2023/03/28 03:27:12;;;;;;;14.80;2.77;;;;;;;;;;5085567;28;20619;-76
2023/03/28 03:29:38;;;;;;;18.25;3.30;;;;;;;;;;5087756;28;20447;-77
2023/03/28 03:32:04;;;;;;;14.90;3.20;;;;;;;;;;5056040;28;20935;-77
2023/03/28 03:34:32;;;;;;;12.10;3.27;;;;;;;;;;5089108;28;20410;-77
2023/03/28 03:36:59;;;;;;;13.70;2.63;;;;;;;;;;5060184;28;20538;-76
2023/03/28 03:39:25;;;;;;;12.60;2.95;;;;;;;;;;5091945;28;20394;-76
2023/03/28 03:41:51;;;;;;;13.70;2.78;;;;;;;;;;5089347;28;20410;-76
2023/03/28 03:44:17;;;;;;;13.60;2.88;;;;;;;;;;5088624;28;20418;-76
2023/03/28 03:46:43;;;;;;;15.90;3.30;;;;;;;;;;5087821;28;20478;-76
2023/03/28 03:49:09;;;;;;;15.20;2.90;;;;;;;;;;5089241;28;20418;-75
2023/03/28 03:51:35;;;;;;;15.30;3.10;;;;;;;;;;5090867;28;20418;-76
2023/03/28 03:54:02;;;;;;;15.23;2.90;;;;;;;;;;5090761;28;20410;-76
2023/03/28 03:56:28;;;;;;;15.70;2.65;;;;;;;;;;5091413;28;20405;-76
2023/03/28 03:58:54;;;;;;;17.10;3.00;;;;;;;;;;5084331;28;20442;-76
2023/03/28 04:01:20;;;;;;;14.10;2.90;;;;;;;;;;5089480;28;20425;-77
2023/03/28 04:03:46;;;;;;;14.05;2.75;;;;;;;;;;5071036;28;20515;-76
2023/03/28 04:06:13;;;;;;;15.82;2.75;;;;;;;;;;5069772;28;20482;-76
2023/03/28 04:08:39;;;;;;;15.38;3.13;;;;;;;;;;5090944;28;20418;-77
2023/03/28 04:11:06;;;;;;;17.95;3.55;;;;;;;;;;5090567;28;20401;-76
2023/03/28 04:13:32;;;;;;;18.63;3.45;;;;;;;;;;5075525;28;20601;-77
2023/03/28 04:15:59;;;;;;;16.42;3.00;;;;;;;;;;5072885;28;20399;-76
2023/03/28 04:18:25;;;;;;;12.32;3.30;;;;;;;;;;5099092;28;20903;-76
2023/03/28 04:20:54;;;;;;;16.70;3.13;;;;;;;;;;5073734;28;20530;-75
2023/03/28 04:23:24;;;;;;;16.70;3.53;;;;;;;;;;5093795;28;20416;-76
2023/03/28 04:25:54;;;;;;;17.60;3.38;;;;;;;;;;5083650;28;20501;-75
2023/03/28 04:28:24;;;;;;;16.23;3.42;;;;;;;;;;5095312;28;20441;-75
2023/03/28 04:30:53;;;;;;;17.08;3.20;;;;;;;;;;5097617;28;20393;-75
2023/03/28 04:33:23;;;;;;;14.52;3.63;;;;;;;;;;5091797;28;20984;-75
2023/03/28 04:36:00;;;;;;;17.05;4.00;;;;;;;;;;5087452;28;20911;-75
2023/03/28 04:38:30;;;;;;;18.45;3.75;;;;;;;;;;5092348;28;20436;-75
2023/03/28 04:40:57;;;;;;;18.90;4.20;;;;;;;;;;5095717;28;20558;-75
2023/03/28 04:43:27;;;;;;;16.45;3.53;;;;;;;;;;5094684;28;20460;-74
2023/03/28 04:45:54;;;;;;;16.63;3.50;;;;;;;;;;5109964;28;21000;-75
2023/03/28 04:48:20;;;;;;;16.73;3.77;;;;;;;;;;5095209;28;21015;-76
2023/03/28 04:50:46;;;;;;;17.83;3.55;;;;;;;;;;5075705;28;20778;-75
2023/03/28 04:53:12;;;;;;;15.20;3.95;;;;;;;;;;5090044;28;20463;-75
2023/03/28 04:55:39;;;;;;;17.10;4.45;;;;;;;;;;5094967;28;20412;-75
2023/03/28 04:58:06;;;;;;;9.63;2.95;;;;;;;;;;5092987;28;20502;-75
2023/03/28 05:00:32;;;;;;;14.10;3.20;;;;;;;;;;5092429;28;20421;-75
2023/03/28 05:02:59;;;;;;;13.63;3.60;;;;;;;;;;5092953;28;20481;-75
2023/03/28 05:05:25;;;;;;;20.05;5.32;;;;;;;;;;5074385;28;20401;-75
2023/03/28 05:07:51;;;;;;;19.70;6.70;;;;;;;;;;5095315;28;20434;-76
2023/03/28 05:10:17;;;;;;;16.60;4.65;;;;;;;;;;5087817;28;20456;-75
2023/03/28 05:12:43;;;;;;;15.20;4.22;;;;;;;;;;5060183;28;20425;-75
2023/03/28 05:15:09;;;;;;;14.70;3.72;;;;;;;;;;5092579;28;20425;-76
2023/03/28 05:17:36;;;;;;;18.08;4.35;;;;;;;;;;5081038;28;20828;-75
2023/03/28 05:20:04;;;;;;;14.98;3.35;;;;;;;;;;5092828;28;20425;-75
2023/03/28 05:22:31;;;;;;;15.68;3.97;;;;;;;;;;5052234;28;20836;-76
2023/03/28 05:24:57;;;;;;;12.98;3.28;;;;;;;;;;5099058;28;20816;-78
2023/03/28 05:27:23;;;;;;;15.85;3.20;;;;;;;;;;5079757;28;20443;-76
2023/03/28 05:29:49;;;;;;;15.70;3.30;;;;;;;;;;5073417;28;20420;-76
2023/03/28 05:32:15;;;;;;;17.65;3.78;;;;;;;;;;5072139;28;20429;-76
2023/03/28 05:34:41;;;;;;;16.73;3.92;;;;;;;;;;5100014;28;20426;-75
2023/03/28 05:37:07;;;;;;;20.63;3.40;;;;;;;;;;5078816;28;20421;-76
2023/03/28 05:39:33;;;;;;;15.27;3.40;;;;;;;;;;5074818;28;20428;-76
2023/03/28 05:41:59;;;;;;;14.47;3.53;;;;;;;;;;5066808;28;20519;-76
2023/03/28 05:44:25;;;;;;;14.57;3.35;;;;;;;;;;5104129;28;20414;-76
2023/03/28 05:46:51;;;;;;;18.70;3.78;;;;;;;;;;5073508;28;20421;-76
2023/03/28 05:49:17;;;;;;;13.40;3.83;;;;;;;;;;5067481;28;20495;-76
2023/03/28 05:51:44;;;;;;;19.02;4.45;;;;;;;;;;5075057;28;20413;-76
2023/03/28 05:54:10;;;;;;;16.90;4.95;;;;;;;;;;5072565;28;20417;-76
2023/03/28 05:56:36;;;;;;;16.10;3.60;;;;;;;;;;5066336;28;20409;-76
2023/03/28 05:59:03;;;;;;;17.42;3.50;;;;;;;;;;5058975;28;20410;-77
2023/03/28 06:01:30;;;;;;;17.67;4.00;;;;;;;;;;5072556;28;20421;-77
2023/03/28 06:03:57;;;;;;;16.88;3.65;;;;;;;;;;5046878;28;20424;-76
2023/03/28 06:06:23;;;;;;;12.37;3.40;;;;;;;;;;5096683;28;20409;-76
2023/03/28 06:08:49;;;;;;;18.48;3.78;;;;;;;;;;5091467;28;20406;-76
2023/03/28 06:11:15;;;;;;;15.43;3.65;;;;;;;;;;5092012;28;20422;-76
2023/03/28 06:13:42;;;;;;;13.68;3.80;;;;;;;;;;5068796;28;20414;-76
2023/03/28 06:16:08;;;;;;;15.65;3.67;;;;;;;;;;5067417;28;20421;-77
2023/03/28 06:18:34;;;;;;;15.38;3.55;;;;;;;;;;5088728;28;20414;-76
2023/03/28 06:21:00;;;;;;;16.85;4.07;;;;;;;;;;5084729;28;20517;-76
2023/03/28 06:23:26;;;;;;;12.38;3.58;;;;;;;;;;5074481;28;20555;-76
2023/03/28 06:25:52;;;;;;;17.90;3.67;;;;;;;;;;5062101;28;20414;-75
2023/03/28 06:28:18;;;;;;;12.35;3.33;;;;;;;;;;5064994;28;20422;-76
2023/03/28 06:30:48;;;;;;;15.60;3.70;;;;;;;;;;5070656;28;20414;-76
2023/03/28 06:33:14;;;;;;;16.83;3.72;;;;;;;;;;5071465;28;20758;-76
2023/03/28 06:35:41;;;;;;;14.32;3.55;;;;;;;;;;5057156;28;20426;-76
2023/03/28 06:38:07;;;;;;;16.50;3.60;;;;;;;;;;5093190;28;20455;-76
2023/03/28 06:40:33;;;;;;;13.98;3.30;;;;;;;;;;5072857;28;20426;-77
2023/03/28 06:42:59;;;;;;;14.55;3.60;;;;;;;;;;5082257;28;20407;-78
2023/03/28 06:45:25;;;;;;;12.32;2.83;;;;;;;;;;5056289;28;20413;-78
2023/03/28 06:47:52;;;;;;;11.80;3.00;;;;;;;;;;5057351;28;20492;-78
2023/03/28 06:50:18;;;;;;;12.38;2.50;;;;;;;;;;5069534;28;20444;-78
2023/03/28 06:52:45;;;;;;;14.70;2.90;;;;;;;;;;5086261;28;20473;-77
2023/03/28 06:55:11;;;;;;;10.82;2.55;;;;;;;;;;5091755;28;20414;-77
2023/03/28 06:57:37;;;;;;;12.07;2.80;;;;;;;;;;5065672;28;20442;-78
2023/03/28 07:00:04;;;;;;;10.43;2.80;;;;;;;;;;5070002;28;20428;-78
2023/03/28 07:02:30;;;;;;;11.40;2.95;;;;;;;;;;5092439;28;20410;-79
2023/03/28 07:04:56;;;;;;;12.90;3.20;;;;;;;;;;5070696;28;20548;-78
2023/03/28 07:07:22;;;;;;;13.65;3.05;;;;;;;;;;5081327;28;20410;-79
2023/03/28 07:09:50;;;;;;;9.30;3.28;;;;;;;;;;5085489;28;20805;-78
2023/03/28 07:12:17;;;;;;;13.05;3.70;;;;;;;;;;5085100;28;20414;-79
2023/03/28 07:14:45;;;;;;;12.48;3.25;;;;;;;;;;5064817;28;20508;-79
2023/03/28 07:17:11;;;;;;;13.02;3.10;;;;;;;;;;5089259;28;20461;-78
2023/03/28 07:19:37;;;;;;;14.13;3.10;;;;;;;;;;5094117;28;20517;-79
2023/03/28 07:22:04;;;;;;;10.63;3.17;;;;;;;;;;5077656;28;20452;-79
2023/03/28 07:24:30;;;;;;;12.02;2.63;;;;;;;;;;5069906;28;20413;-78
2023/03/28 07:26:56;;;;;;;10.32;2.72;;;;;;;;;;5097167;28;20467;-81
2023/03/28 07:29:22;;;;;;;10.57;2.65;;;;;;;;;;5053539;28;20500;-79
2023/03/28 07:31:48;;;;;;;11.93;2.60;;;;;;;;;;5074622;28;20411;-80
2023/03/28 07:34:18;;;;;;;10.50;2.40;;;;;;;;;;5090858;28;20784;-78
2023/03/28 07:36:44;;;;;;;11.18;2.85;;;;;;;;;;5088078;28;20475;-79
2023/03/28 07:39:10;;;;;;;10.60;2.80;;;;;;;;;;5070620;28;20924;-80
2023/03/28 07:41:36;;;;;;;9.93;2.40;;;;;;;;;;5055781;28;20422;-80
2023/03/28 07:44:02;;;;;;;14.85;2.80;;;;;;;;;;5047129;28;20425;-80
2023/03/28 07:46:31;;;;;;;10.63;2.60;;;;;;;;;;5073181;28;20418;-80
2023/03/28 07:48:59;;;;;;;9.38;2.90;;;;;;;;;;5048788;28;20470;-78
2023/03/28 07:51:25;;;;;;;11.33;2.83;;;;;;;;;;5069979;28;20449;-76
2023/03/28 07:53:51;;;;;;;8.45;2.50;;;;;;;;;;5077719;28;20409;-77
2023/03/28 07:56:17;;;;;;;9.75;2.63;;;;;;;;;;5092813;28;20869;-78
2023/03/28 07:58:45;;;;;;;8.20;2.53;;;;;;;;;;5070762;28;20418;-82
2023/03/28 08:01:13;;;;;;;12.40;2.70;;;;;;;;;;5058155;28;21532;-80
2023/03/28 08:03:39;;;;;;;12.40;2.40;;;;;;;;;;5050314;28;20446;-79
2023/03/28 08:06:08;;;;;;;7.20;2.40;;;;;;;;;;5071881;28;20571;-83
2023/03/28 08:08:37;;;;;;;8.27;2.42;;;;;;;;;;5068727;28;20495;-81
2023/03/28 08:11:03;;;;;;;7.50;2.33;;;;;;;;;;5090279;28;20443;-82
2023/03/28 08:13:30;;;;;;;11.52;2.63;;;;;;;;;;5089620;28;20428;-80
2023/03/28 08:15:56;;;;;;;7.22;2.05;;;;;;;;;;5072758;28;20418;-81
2023/03/28 08:18:24;;;;;;;10.60;2.47;;;;;;;;;;5090512;28;20428;-81
2023/03/28 08:20:50;;;;;;;5.97;2.10;;;;;;;;;;5071578;28;20506;-80
2023/03/28 08:23:17;;;;;;;8.67;1.80;;;;;;;;;;5107209;28;20495;-80
2023/03/28 08:25:43;;;;;;;7.47;1.77;;;;;;;;;;5088736;28;20420;-81
2023/03/28 08:28:10;;;;;;;6.70;1.95;;;;;;;;;;5066437;28;20437;-80
2023/03/28 08:30:36;;;;;;;7.28;2.10;;;;;;;;;;5087546;28;20467;-78
2023/03/28 08:33:05;;;;;;;7.82;2.13;;;;;;;;;;5091121;28;20814;-79
2023/03/28 08:35:31;;;;;;;7.35;1.80;;;;;;;;;;5053541;28;20417;-76
2023/03/28 08:37:58;;;;;;;8.52;2.20;;;;;;;;;;5066180;28;20421;-76
2023/03/28 08:40:25;;;;;;;7.70;1.80;;;;;;;;;;5049729;28;20422;-76
2023/03/28 08:43:11;;;;;;;8.80;1.80;;;;;;;;;;5060186;28;20913;-75
2023/03/28 08:45:37;;;;;;;8.70;1.73;;;;;;;;;;5068210;28;20471;-75
2023/03/28 08:48:06;;;;;;;8.02;1.90;;;;;;;;;;5066001;28;20782;-77
2023/03/28 08:50:40;;;;;;;7.47;2.10;;;;;;;;;;5066342;28;20438;-77
2023/03/28 08:53:12;;;;;;;4.72;1.65;;;;;;;;;;5087274;28;21095;-77
2023/03/28 08:55:40;;;;;;;5.88;1.70;;;;;;;;;;5078575;28;20451;-75
2023/03/28 08:58:11;;;;;;;7.07;1.90;;;6.70;99.90;;;;;;5053457;28;20457;-76
2023/03/28 09:00:37;;;;;;;6.35;1.42;;;;;;;;;;5043279;28;21045;-76
2023/03/28 09:03:12;;;;;;;4.60;1.52;;;;;;;;;;5080202;28;20422;-76
2023/03/28 09:05:48;;;;;;;7.40;1.58;;;;;;;;;;5074342;28;20429;-76
2023/03/28 09:08:14;;;;;;;7.93;1.60;;;;;;;;;;5110616;28;20910;-76
2023/03/28 09:10:43;;;;;;;5.85;1.25;;;;;;;;;;5072141;28;20422;-76
2023/03/28 09:13:19;;;;;;;5.77;1.53;;;;;;;;;;5087843;28;20770;-75
2023/03/28 09:15:48;;;;;;;6.43;1.40;;;;;;;;;;5067178;28;20426;-76
2023/03/28 09:18:14;;;;;;;7.10;1.60;;;;;;;;;;5069742;28;20417;-75
2023/03/28 09:20:59;;;;;;;5.80;1.65;;;;;;;;;;5091509;28;20905;-78
2023/03/28 09:23:31;;;;;;;4.03;1.30;;;;;;;;;;5072367;28;20962;-78
2023/03/28 09:25:59;;;;;;;6.57;1.60;;;;;;;;;;5059234;28;20425;-78
2023/03/28 09:28:25;;;;;;;6.00;1.60;;;;;;;;;;5077900;28;20426;-78
2023/03/28 09:30:52;;;;;;;5.20;1.50;;;;;;;;;;5076014;28;20401;-79
2023/03/28 09:33:20;;;;;;;6.18;1.80;;;;;;;;;;5080780;28;20422;-78
2023/03/28 09:35:47;;;;;;;6.07;1.42;;;;;;;;;;5087659;28;20468;-79
2023/03/28 09:38:16;;;;;;;6.07;1.40;;;;;;;;;;5073426;28;20440;-78
2023/03/28 09:40:45;;;;;;;4.87;1.67;;;;;;;;;;5087607;28;20559;-78
2023/03/28 09:43:32;;;;;;;5.82;1.40;;;7.30;99.90;;;;;;5086038;28;20767;-78
2023/03/28 09:46:01;;;;;;;4.17;1.30;;;;;;;;;;5067510;28;20929;-79
2023/03/28 09:48:35;;;;;;;5.78;1.50;;;;;;;;;;5106919;28;20750;-79
2023/03/28 09:51:02;;;;;;;5.85;1.50;;;;;;;;;;5073556;28;20415;-78
2023/03/28 09:53:32;;;;;;;5.97;1.57;;;;;;;;;;5072879;28;20929;-79
2023/03/28 09:56:08;;;;;;;5.60;1.40;;;;;;;;;;5058050;28;20414;-78
2023/03/28 09:58:50;;;;;;;6.37;1.63;;;;;;;;;;5088514;28;20414;-79
2023/03/28 10:01:25;;;;;;;6.50;1.63;;;;;;;;;;5060624;28;20934;-77
2023/03/28 10:03:53;;;;;;;6.15;1.50;;;7.70;99.90;;;;;;5068499;28;20419;-77
2023/03/28 10:06:27;;;;;;;6.60;1.83;;;7.80;99.90;;;;;;5104228;28;20801;-78
2023/03/28 10:09:08;;;;;;;5.97;1.70;;;;;;;;;;5055650;28;20396;-79
2023/03/28 10:11:43;;;;;;;5.88;1.88;;;;;;;;;;5074232;28;20422;-79
2023/03/28 10:14:27;;;;;;;7.53;2.77;;;;;;;;;;5070380;28;20984;-79
2023/03/28 10:16:53;;;;;;;7.10;2.00;;;;;;;;;;5068541;28;20427;-79
2023/03/28 10:19:31;;;;;;;7.50;2.33;;;;;;;;;;5069730;28;20425;-79
2023/03/28 10:21:57;;;;;;;6.43;2.15;;;;;;;;;;5079519;28;20437;-78
2023/03/28 10:24:24;;;;;;;7.05;2.17;;;;;;;;;;5066508;28;21958;-79
2023/03/28 10:26:51;;;;;;;6.22;2.42;;;;;;;;;;5052557;28;20933;-78
2023/03/28 10:29:17;;;;;;;6.80;2.28;;;;;;;;;;5056167;28;20514;-79
2023/03/28 10:31:48;;;;;;;7.38;2.30;;;7.90;99.90;;;;;;5048383;28;20423;-81
2023/03/28 10:34:32;;;;;;;7.57;2.27;;;;;;;;;;5058565;28;20417;-80
2023/03/28 10:36:58;;;;;;;8.30;2.20;;;;;;;;;;5067313;28;20421;-81
2023/03/28 10:39:24;;;;;;;6.93;2.10;;;;;;;;;;5058636;28;20475;-80
2023/03/28 10:41:57;;;;;;;6.25;2.30;;;;;;;;;;5058043;28;20450;-81
2023/03/28 10:44:31;;;;;;;6.70;2.43;;;8.20;99.90;;;;;;5066615;28;20987;-81
2023/03/28 10:47:02;;;;;;;6.35;2.45;;;;;;;;;;5058415;28;20493;-81
2023/03/28 10:49:30;;;;;;;7.27;2.23;;;;;;;;;;5092604;28;20703;-80
2023/03/28 10:51:56;;;;;;;4.85;2.20;;;;;;;;;;5075238;28;20401;-81
2023/03/28 10:54:58;;;;;;;5.30;2.30;;;;;;;;;;5068902;28;20423;-79
2023/03/28 10:57:32;;;;;;;6.68;2.75;;;;;;;;;;4970424;28;20456;-80
2023/03/28 10:59:58;;;;;;;8.10;2.63;;;;;;;;;;5058568;28;20496;-77
2023/03/28 11:02:27;;;;;;;7.05;2.00;;;;;;;;;;5069908;28;20418;-76
2023/03/28 11:05:20;;;;;;;4.97;2.17;;;;;;;;;;5067558;28;20410;-78
2023/03/28 11:07:54;;;;;;;6.47;2.80;;;;;;;;;;5067849;28;20470;-81
2023/03/28 11:10:28;;;;;;;8.32;2.83;;;;;;;;;;5072775;28;20426;-81
2023/03/28 11:13:24;;;;;;;5.60;2.47;;;;;;;;;;5073119;28;20959;-81
2023/03/28 11:16:09;;;;;;;9.27;2.63;;;8.50;99.90;;;;;;5056046;28;20805;-82
2023/03/28 11:18:38;;;;;;;7.43;2.35;;;;;;;;;;5072206;28;20421;-82
2023/03/28 11:21:07;;;;;;;6.22;2.40;;;;;;;;;;5073271;28;20463;-82
2023/03/28 11:23:58;;;;;;;7.78;2.70;;;;;;;;;;5070553;28;20434;-81
2023/03/28 11:26:24;;;;;;;4.57;2.35;;;;;;;;;;5070096;28;20416;-82
2023/03/28 11:29:22;;;;;;;6.93;2.38;;;9.00;99.90;;;;;;5070759;28;20406;-81
2023/03/28 11:32:04;;;;;;;6.88;2.35;;;;;;;;;;5100396;28;20934;-81
2023/03/28 11:34:41;;;;;;;6.10;2.55;;;;;;;;;;5071795;28;20421;-81
2023/03/28 11:37:16;;;;;;;7.35;2.58;;;;;;;;;;5069223;28;20417;-80
2023/03/28 11:39:42;;;;;;;5.97;2.42;;;;;;;;;;5070449;28;20917;-81
2023/03/28 11:42:19;;;;;;;7.37;2.60;;;;;;;;;;5072548;28;20421;-80
2023/03/28 11:45:09;;;;;;;7.65;2.88;;;;;;;;;;5071326;28;20414;-81
2023/03/28 11:47:41;;;;;;;8.33;3.00;;;;;;;;;;5031637;28;20496;-80
2023/03/28 11:50:13;;;;;;;6.93;2.85;;;;;;;;;;5065384;28;21046;-80
2023/03/28 11:52:42;;;;;;;7.72;3.00;;;;;;;;;;5062878;28;20413;-80
2023/03/28 11:55:17;;;;;;;8.40;2.80;;;;;;;;;;5064742;28;20430;-84
2023/03/28 11:57:52;;;;;;;5.45;2.80;;;;;;;;;;5067222;28;20473;-81
2023/03/28 12:00:27;;;;;;;6.65;2.70;;;;;;;;;;5083087;28;20443;-81
2023/03/28 12:03:03;;;;;;;8.45;2.90;;;;;;;;;;5052041;28;20442;-80
2023/03/28 12:05:46;;;;;;;5.72;2.83;;;9.10;99.90;;;;;;5055608;28;20489;-81
2023/03/28 12:08:12;;;;;;;7.28;2.90;;;;;;;;;;5057133;28;20837;-81
2023/03/28 12:10:41;;;;;;;7.32;2.78;;;;;;;;;;5054989;28;20992;-81
2023/03/28 12:13:22;;;;;;;7.03;2.70;;;;;;;;;;5093971;28;20423;-81
2023/03/28 12:15:55;;;;;;;7.03;2.88;;;;;;;;;;5062026;28;20428;-81
2023/03/28 12:18:27;;;;;;;6.57;2.83;;;;;;;;;;5042003;28;20467;-81
2023/03/28 12:21:13;;;;;;;8.07;2.90;;;;;;;;;;5044130;28;20419;-81
2023/03/28 12:23:58;;;;;;;6.23;3.00;;;;;;;;;;5048878;28;20431;-81
2023/03/28 12:26:41;;;;;;;7.72;3.00;;;;;;;;;;5050025;28;20470;-80
2023/03/28 12:29:18;;;;;;;7.78;3.05;;;;;;;;;;5065651;28;20506;-81
2023/03/28 12:31:51;;;;;;;5.80;2.60;;;;;;;;;;5070358;28;20919;-81
2023/03/28 12:34:43;;;;;;;6.68;2.60;;;10.10;99.90;;;;;;5071299;28;20486;-79
2023/03/28 12:37:23;;;;;;;6.37;2.80;;;;;;;;;;5069587;28;20419;-79
2023/03/28 12:40:12;;;;;;;5.80;2.70;;;9.70;99.90;;;;;;5075783;28;20427;-80
2023/03/28 12:42:40;;;;;;;6.53;3.17;;;;;;;;;;5064575;28;20827;-80
2023/03/28 12:45:13;;;;;;;6.50;2.90;;;10.00;99.90;;;;;;5090235;28;20965;-80
2023/03/28 12:47:44;;;;;;;6.13;2.83;;;9.60;99.90;;;;;;5039778;28;20440;-80
2023/03/28 12:50:45;;;;;;;6.65;3.00;;;9.60;99.90;;;;;;5054826;28;20849;-79
2023/03/28 12:53:11;;;;;;;7.15;3.00;;;;;;;;;;5055449;28;20827;-79
2023/03/28 12:55:41;;;;;;;7.10;3.10;;;;;;;;;;5069548;28;20510;-80
2023/03/28 12:58:12;;;;;;;8.63;3.20;;;;;;;;;;5063360;28;21180;-79
2023/03/28 13:01:07;;;;;;;7.13;2.90;;;9.80;99.90;;;;;;5051040;28;20942;-80
2023/03/28 13:03:46;;;;;;;8.82;3.45;;;;;;;;;;5040828;28;20489;-80
2023/03/28 13:06:24;;;;;;;7.75;3.25;;;;;;;;;;5062008;28;20415;-81
2023/03/28 13:08:50;;;;;;;7.30;3.10;;;;;;;;;;5065453;28;20415;-81
2023/03/28 13:11:28;;;;;;;7.10;2.93;;;;;;;;;;5053286;28;20424;-80
2023/03/28 13:14:18;;;;;;;8.27;3.33;;;;;;;;;;5065289;28;20472;-80
2023/03/28 13:17:20;;;;;;;7.82;3.20;;;9.80;99.90;;;;;;5048082;28;20420;-78
2023/03/28 13:19:54;;;;;;;6.93;3.58;;;;;;;;;;5027510;28;20438;-80
2023/03/28 13:22:30;;;;;;;7.30;3.80;;;;;;;;;;5054937;28;20439;-80
2023/03/28 13:25:15;;;;;;;8.65;3.97;;;;;;;;;;5098915;28;20419;-79
2023/03/28 13:27:41;;;;;;;8.45;3.80;;;;;;;;;;5063597;28;20434;-80
2023/03/28 13:30:25;;;;;;;8.27;3.20;;;;;;;;;;5065610;28;20484;-79
2023/03/28 13:32:55;;;;;;;6.80;3.35;;;;;;;;;;5060141;28;20424;-79
2023/03/28 13:35:41;;;;;;;7.32;3.30;;;;;;;;;;5070566;28;20430;-79
2023/03/28 13:38:25;;;;;;;7.80;2.97;;;;;;;;;;5056628;28;20896;-79
2023/03/28 13:41:05;;;;;;;7.78;3.10;;;9.30;99.90;;;;;;5071142;28;20476;-79
2023/03/28 13:43:31;;;;;;;7.85;2.90;;;;;;;;;;5058089;28;20491;-80
2023/03/28 13:45:59;;;;;;;6.80;3.20;;;;;;;;;;5055402;28;20451;-80
2023/03/28 13:48:29;;;;;;;7.53;2.95;;;;;;;;;;5055665;28;20450;-79
2023/03/28 13:50:59;;;;;;;6.20;2.80;;;9.70;99.90;;;;;;5048611;28;20420;-79
2023/03/28 13:53:25;;;;;;;8.73;2.70;;;;;;;;;;5085142;28;20494;-80
2023/03/28 13:56:22;;;;;;;6.50;3.00;;;8.70;99.90;;;;;;5068907;28;20423;-80
2023/03/28 13:58:49;;;;;;;6.43;2.90;;;;;;;;;;5046030;28;20427;-80
2023/03/28 14:01:17;;;;;;;7.60;3.15;;;;;;;;;;5044355;28;20416;-81
2023/03/28 14:03:45;;;;;;;5.82;3.00;;;;;;;;;;5066588;28;20763;-80
2023/03/28 14:06:19;;;;;;;7.43;3.10;;;8.90;99.90;;;;;;5060312;28;20424;-81
2023/03/28 14:08:46;;;;;;;8.57;3.15;;;;;;;;;;5066419;28;20496;-81
2023/03/28 14:11:12;;;;;;;6.22;3.28;;;;;;;;;;5045796;28;20504;-81
2023/03/28 14:13:38;;;;;;;8.02;3.05;;;;;;;;;;5098133;28;20417;-81
2023/03/28 14:16:06;;;;;;;6.63;2.83;;;;;;;;;;5100294;28;20428;-81
2023/03/28 14:18:38;;;;;;;8.32;3.03;;;9.40;99.90;;;;;;5069667;28;20432;-81
2023/03/28 14:21:06;;;;;;;11.55;3.10;;;;;;;;;;5066793;28;20470;-82
2023/03/28 14:23:37;;;;;;;7.88;3.17;;;;;;;;;;5054694;28;21028;-81
2023/03/28 14:26:08;;;;;;;6.50;3.05;;;;;;;;;;5062137;28;20411;-82
2023/03/28 14:28:38;;;;;;;7.22;3.13;;;;;;;;;;5053736;28;20404;-82
2023/03/28 14:31:04;;;;;;;8.45;3.10;;;;;;;;;;5063659;28;20425;-82
2023/03/28 14:33:35;;;;;;;6.93;2.97;;;9.50;99.90;;;;;;5092863;28;20423;-82
2023/03/28 14:36:04;;;;;;;10.05;3.20;;;;;;;;;;5060189;28;20466;-82
2023/03/28 14:38:35;;;;;;;8.73;3.40;;;;;;;;;;5072272;28;20411;-81
2023/03/28 14:41:05;;;;;;;7.13;3.22;;;;;;;;;;5058955;28;20928;-81
2023/03/28 14:43:31;;;;;;;7.83;3.70;;;;;;;;;;5054436;28;20937;-81
2023/03/28 14:46:03;;;;;;;6.72;3.30;;;9.20;99.90;;;;;;5067172;28;20518;-80
2023/03/28 14:48:29;;;;;;;7.63;3.20;;;;;;;;;;5065856;28;20972;-80